Time;durP1;ratioP1;P1;durP2;ratioP2;P2;SDS_P1;SDS_P2;PMS_P1;PMS_P2;Temp;Humidity;BMP_temperature;BMP_pressure;BME280_temperature;BME280_humidity;BME280_pressure;Samples;Min_cycle;Max_cycle;Signal;HPM_P1;HPM_P2
2022/04/28 00:00:16;;;;;;;10.43;4.63;;;13.50;79.20;;;;;;4997407;28;20204;-94
2022/04/28 00:02:43;;;;;;;6.87;3.47;;;13.50;79.10;;;;;;4997756;28;20619;-95
2022/04/28 00:05:09;;;;;;;12.13;4.17;;;13.30;79.80;;;;;;4998043;28;20417;-95
2022/04/28 00:07:36;;;;;;;10.87;4.00;;;13.40;79.60;;;;;;4998587;28;20198;-94
2022/04/28 00:10:03;;;;;;;14.40;4.53;;;13.40;80.10;;;;;;4998280;28;20231;-94
2022/04/28 00:12:30;;;;;;;13.77;4.20;;;13.30;80.10;;;;;;4998468;28;20186;-94
2022/04/28 00:14:56;;;;;;;8.13;3.93;;;13.20;80.90;;;;;;4997559;28;20241;-94
2022/04/28 00:17:22;;;;;;;8.50;4.63;;;13.10;81.60;;;;;;4997389;28;20171;-94
2022/04/28 00:19:47;;;;;;;15.10;4.80;;;13.20;81.20;;;;;;5006091;28;20558;-93
2022/04/28 00:22:13;;;;;;;10.20;4.40;;;13.20;80.90;;;;;;5017203;28;20182;-94
2022/04/28 00:24:40;;;;;;;11.53;4.53;;;13.30;80.40;;;;;;5016980;28;20226;-94
2022/04/28 00:27:06;;;;;;;7.47;4.37;;;13.10;80.90;;;;;;5014435;28;20272;-94
2022/04/28 00:29:32;;;;;;;12.10;4.30;;;13.20;81.30;;;;;;5001107;28;20205;-93
2022/04/28 00:31:57;;;;;;;11.33;4.73;;;13.10;81.40;;;;;;5016666;28;20524;-94
2022/04/28 00:34:23;;;;;;;9.17;4.10;;;13.20;82.00;;;;;;5017378;28;20271;-94
2022/04/28 00:36:49;;;;;;;10.83;4.30;;;13.10;81.30;;;;;;5016513;28;20193;-94
2022/04/28 00:39:14;;;;;;;10.43;3.93;;;13.00;82.00;;;;;;4997682;28;20191;-95
2022/04/28 00:41:40;;;;;;;6.20;3.90;;;13.00;82.00;;;;;;4996843;28;20191;-94
2022/04/28 00:44:10;;;;;;;8.60;3.80;;;13.00;82.00;;;;;;4996884;28;20578;-94
2022/04/28 00:46:36;;;;;;;8.47;4.20;;;13.00;82.20;;;;;;4997042;28;20170;-94
2022/04/28 00:51:46;;;;;;;13.07;4.70;;;12.90;82.30;;;;;;5033864;28;20172;-95
2022/04/28 00:54:12;;;;;;;7.97;4.30;;;12.80;82.70;;;;;;5016307;28;20197;-94
2022/04/28 00:56:38;;;;;;;13.00;4.70;;;13.00;82.30;;;;;;5016103;28;20283;-94
2022/04/28 00:59:04;;;;;;;7.37;4.37;;;12.80;83.20;;;;;;5015801;28;20178;-95
2022/04/28 01:01:30;;;;;;;12.10;4.50;;;12.60;83.90;;;;;;5016544;28;20169;-95
2022/04/28 01:03:56;;;;;;;10.37;4.80;;;12.60;84.00;;;;;;5016274;28;20288;-94
2022/04/28 01:06:22;;;;;;;8.77;4.77;;;12.50;84.60;;;;;;5016038;28;20263;-95
2022/04/28 01:08:48;;;;;;;9.43;4.40;;;12.50;85.10;;;;;;5003393;28;20209;-94
2022/04/28 01:11:18;;;;;;;7.07;4.37;;;12.60;84.70;;;;;;4996149;28;20191;-94
2022/04/28 01:13:45;;;;;;;8.87;4.43;;;12.50;85.00;;;;;;4996678;28;20278;-94
2022/04/28 01:16:12;;;;;;;10.93;4.03;;;12.40;85.40;;;;;;4996712;28;20178;-95
2022/04/28 01:18:38;;;;;;;12.10;5.00;;;12.30;86.10;;;;;;5011663;28;20181;-94
2022/04/28 01:21:07;;;;;;;8.93;4.30;;;12.30;86.10;;;;;;5015963;28;20716;-94
2022/04/28 01:23:34;;;;;;;8.23;4.17;;;12.30;86.40;;;;;;5015479;28;20179;-93
2022/04/28 01:26:00;;;;;;;8.40;4.43;;;12.10;87.60;;;;;;4997069;28;20190;-94
2022/04/28 01:28:31;;;;;;;10.43;4.97;;;12.20;87.30;;;;;;5009131;28;20174;-94
2022/04/28 01:30:58;;;;;;;8.07;4.17;;;12.20;87.30;;;;;;5000088;28;20236;-95
2022/04/28 01:33:24;;;;;;;14.43;4.53;;;11.90;89.00;;;;;;4996653;28;20170;-94
2022/04/28 01:35:50;;;;;;;8.03;4.50;;;12.00;89.00;;;;;;4996770;28;20175;-94
2022/04/28 01:38:15;;;;;;;10.33;4.30;;;11.90;90.00;;;;;;5007871;28;20230;-93
2022/04/28 01:40:43;;;;;;;10.13;5.07;;;11.70;90.20;;;;;;5016480;28;20187;-94
2022/04/28 01:43:09;;;;;;;11.20;4.80;;;11.80;90.30;;;;;;5016333;28;20184;-94
2022/04/28 01:45:35;;;;;;;11.57;4.87;;;12.00;89.90;;;;;;5016659;28;20200;-94
2022/04/28 01:48:01;;;;;;;9.50;4.90;;;11.90;90.00;;;;;;5017159;28;20743;-94
2022/04/28 01:50:26;;;;;;;12.23;4.83;;;11.80;90.30;;;;;;5017394;28;20185;-94
2022/04/28 01:55:36;;;;;;;13.23;4.50;;;11.60;90.80;;;;;;5033822;28;20257;-93
2022/04/28 01:58:02;;;;;;;11.77;4.53;;;11.60;91.10;;;;;;5015607;28;20201;-94
2022/04/28 02:00:29;;;;;;;10.27;4.67;;;11.50;91.20;;;;;;5015902;28;20553;-95
2022/04/28 02:02:55;;;;;;;10.70;4.70;;;11.70;91.20;;;;;;5005875;28;20181;-95
2022/04/28 02:05:20;;;;;;;13.77;4.80;;;11.90;90.70;;;;;;5000494;28;20656;-94
2022/04/28 02:07:49;;;;;;;13.47;4.90;;;11.90;90.50;;;;;;5006910;28;20219;-94
2022/04/28 02:10:15;;;;;;;11.57;4.67;;;12.00;90.30;;;;;;5024341;28;20205;-94
2022/04/28 02:12:40;;;;;;;12.17;4.87;;;11.60;90.90;;;;;;5025928;28;20550;-94
2022/04/28 02:15:06;;;;;;;11.67;5.17;;;11.50;91.40;;;;;;5021510;28;20189;-95
2022/04/28 02:17:37;;;;;;;9.93;4.80;;;11.50;91.30;;;;;;5021001;28;20176;-95
2022/04/28 02:20:05;;;;;;;12.20;5.27;;;11.50;91.50;;;;;;5040867;28;20171;-93
2022/04/28 02:22:31;;;;;;;11.00;4.90;;;11.60;91.40;;;;;;5036354;28;20304;-93
2022/04/28 02:24:57;;;;;;;9.60;4.47;;;11.30;91.90;;;;;;5035175;28;20220;-94
2022/04/28 02:27:24;;;;;;;11.40;4.93;;;11.30;92.20;;;;;;5030033;28;20169;-94
2022/04/28 02:29:50;;;;;;;13.73;5.30;;;11.30;92.30;;;;;;5021686;28;20196;-93
2022/04/28 02:32:16;;;;;;;10.37;4.70;;;11.30;92.50;;;;;;5020487;28;20180;-94
2022/04/28 02:34:42;;;;;;;13.33;5.07;;;11.30;92.60;;;;;;5023671;28;20191;-96
2022/04/28 02:37:09;;;;;;;11.17;4.97;;;11.10;93.10;;;;;;5021394;28;20645;-94
2022/04/28 02:39:35;;;;;;;11.53;4.93;;;11.30;93.20;;;;;;5019347;28;20169;-95
2022/04/28 02:42:02;;;;;;;11.83;5.07;;;11.30;93.10;;;;;;5018567;28;20187;-94
2022/04/28 02:44:28;;;;;;;10.27;5.23;;;11.20;93.40;;;;;;5018749;28;20290;-94
2022/04/28 02:46:54;;;;;;;12.40;4.80;;;11.30;93.20;;;;;;5019480;28;20639;-94
2022/04/28 02:49:19;;;;;;;9.50;4.73;;;11.30;93.20;;;;;;5018767;28;20208;-94
2022/04/28 02:51:45;;;;;;;11.23;4.93;;;11.20;93.50;;;;;;5012893;28;20183;-95
2022/04/28 02:54:11;;;;;;;9.63;4.87;;;11.20;93.50;;;;;;4998852;28;20697;-93
2022/04/28 02:56:37;;;;;;;14.27;5.20;;;11.20;93.60;;;;;;5001313;28;20232;-95
2022/04/28 02:59:03;;;;;;;11.90;5.43;;;11.30;93.20;;;;;;5018164;28;20579;-94
2022/04/28 03:01:29;;;;;;;10.50;5.53;;;11.40;93.10;;;;;;5016589;28;20755;-95
2022/04/28 03:03:55;;;;;;;12.63;5.60;;;11.20;93.30;;;;;;4998893;28;20213;-95
2022/04/28 03:11:52;;;;;;;9.30;5.13;;;10.90;94.30;;;;;;5017596;28;20716;-94
2022/04/28 03:14:18;;;;;;;10.23;4.60;;;10.90;94.60;;;;;;4999419;28;20276;-95
2022/04/28 03:16:44;;;;;;;7.63;5.10;;;11.00;94.50;;;;;;5000081;28;20629;-95
2022/04/28 03:19:10;;;;;;;12.80;5.43;;;11.00;94.90;;;;;;5000068;28;20173;-94
2022/04/28 03:21:37;;;;;;;11.30;5.37;;;10.90;95.10;;;;;;5012228;28;20175;-94
2022/04/28 03:24:03;;;;;;;9.70;5.33;;;10.90;95.30;;;;;;5020439;28;20201;-95
2022/04/28 03:26:29;;;;;;;16.13;5.40;;;10.90;95.00;;;;;;5011637;28;20200;-94
2022/04/28 03:28:56;;;;;;;12.87;6.10;;;11.00;95.10;;;;;;5001735;28;20177;-94
2022/04/28 03:31:22;;;;;;;12.60;5.00;;;10.90;95.20;;;;;;5011092;28;20267;-93
2022/04/28 03:33:48;;;;;;;8.53;5.30;;;10.90;95.10;;;;;;5019923;28;20713;-92
2022/04/28 03:38:59;;;;;;;14.83;5.57;;;10.60;96.50;;;;;;5043925;28;20175;-94
2022/04/28 03:41:24;;;;;;;8.00;5.47;;;10.50;97.10;;;;;;5020763;28;20181;-93
2022/04/28 03:43:50;;;;;;;11.93;5.60;;;10.60;96.90;;;;;;5014740;28;20205;-94
2022/04/28 03:46:18;;;;;;;11.83;5.10;;;10.60;96.90;;;;;;5014955;28;20184;-94
2022/04/28 03:48:44;;;;;;;12.47;5.90;;;10.50;97.50;;;;;;5010101;28;20178;-94
2022/04/28 03:51:10;;;;;;;16.80;5.50;;;10.50;97.50;;;;;;4999382;28;20185;-93
2022/04/28 03:53:35;;;;;;;16.10;6.10;;;10.50;97.50;;;;;;4998276;28;20622;-94
2022/04/28 03:56:01;;;;;;;10.63;5.37;;;10.40;97.70;;;;;;4997620;28;20303;-91
2022/04/28 03:58:27;;;;;;;11.90;6.20;;;10.40;98.40;;;;;;4998225;28;20184;-93
2022/04/28 04:00:52;;;;;;;14.23;5.53;;;10.50;97.80;;;;;;5001248;28;20181;-93
2022/04/28 04:03:21;;;;;;;10.57;5.40;;;10.40;98.00;;;;;;5018184;28;20632;-93
2022/04/28 04:05:48;;;;;;;16.03;8.13;;;10.30;98.40;;;;;;5017513;28;20212;-93
2022/04/28 04:08:17;;;;;;;10.87;5.73;;;10.40;98.70;;;;;;5016983;28;20169;-94
2022/04/28 04:10:43;;;;;;;13.73;6.10;;;10.40;98.60;;;;;;5014902;28;20168;-93
2022/04/28 04:13:09;;;;;;;15.63;6.13;;;10.50;98.20;;;;;;4997676;28;20710;-94
2022/04/28 04:15:34;;;;;;;12.13;5.87;;;10.40;98.50;;;;;;4997627;28;20181;-94
2022/04/28 04:18:01;;;;;;;14.00;6.73;;;10.30;98.80;;;;;;4997359;28;20525;-94
2022/04/28 04:20:28;;;;;;;14.33;6.83;;;10.30;99.00;;;;;;4997571;28;20178;-94
2022/04/28 04:22:54;;;;;;;17.97;6.47;;;10.50;98.50;;;;;;4997429;28;20189;-93
2022/04/28 04:25:20;;;;;;;13.87;6.53;;;10.50;98.20;;;;;;4996893;28;20747;-93
2022/04/28 04:27:46;;;;;;;13.40;6.20;;;10.30;98.80;;;;;;4996973;28;20550;-93
2022/04/28 04:32:56;;;;;;;9.63;6.17;;;10.30;99.10;;;;;;5019569;28;20211;-96
2022/04/28 04:35:23;;;;;;;18.97;6.70;;;10.40;99.10;;;;;;5000846;28;20180;-96
2022/04/28 04:37:50;;;;;;;13.03;5.90;;;10.20;99.40;;;;;;5003828;28;20181;-96
2022/04/28 04:40:16;;;;;;;10.90;6.00;;;10.20;99.70;;;;;;5012023;28;20215;-96
2022/04/28 04:42:43;;;;;;;13.20;6.23;;;10.30;99.50;;;;;;4999666;28;20220;-96
2022/04/28 04:45:10;;;;;;;9.97;6.20;;;10.60;98.60;;;;;;4999828;28;20696;-96
2022/04/28 04:47:36;;;;;;;14.43;6.77;;;10.40;99.10;;;;;;5010530;28;20174;-96
2022/04/28 04:50:03;;;;;;;13.83;6.57;;;10.40;99.20;;;;;;5001152;28;20177;-96
2022/04/28 04:52:30;;;;;;;11.67;6.57;;;10.30;99.50;;;;;;5000022;28;20180;-96
2022/04/28 04:54:55;;;;;;;12.73;6.00;;;10.10;99.90;;;;;;5020297;28;20216;-96
2022/04/28 04:57:21;;;;;;;14.87;6.13;;;10.20;99.90;;;;;;5009296;28;20172;-96
2022/04/28 04:59:53;;;;;;;19.53;7.00;;;10.10;99.90;;;;;;5013473;28;20177;-94
2022/04/28 05:02:19;;;;;;;27.50;15.17;;;10.10;99.90;;;;;;5020509;28;20177;-96
2022/04/28 05:04:49;;;;;;;16.43;7.43;;;10.00;99.90;;;;;;5017904;28;20233;-94
2022/04/28 05:07:28;;;;;;;13.47;7.33;;;10.10;99.90;;;;;;5029324;28;20257;-96
2022/04/28 10:21:46;;;;;;;17.57;10.20;;;17.50;85.30;;;;;;5799994;23;21021;-91
2022/04/28 10:33:04;;;;;;;18.13;10.33;;;17.90;82.90;;;;;;5016471;28;20208;-93
2022/04/28 10:35:39;;;;;;;16.47;10.13;;;17.90;82.80;;;;;;4998670;28;20236;-92
2022/04/28 10:38:30;;;;;;;16.30;10.13;;;18.10;82.30;;;;;;4999232;28;20203;-93
2022/04/28 10:40:58;;;;;;;17.73;9.43;;;18.20;81.30;;;;;;4999178;28;20184;-92
2022/04/28 10:43:33;;;;;;;16.10;10.00;;;18.20;81.90;;;;;;4999107;28;20186;-92
2022/04/28 10:46:24;;;;;;;13.43;9.47;;;18.30;80.60;;;;;;4998880;28;20299;-93
2022/04/28 10:48:59;;;;;;;14.50;9.83;;;18.20;81.60;;;;;;4999197;28;20272;-92
2022/04/28 10:51:27;;;;;;;14.77;10.00;;;18.30;81.70;;;;;;4998858;28;20177;-92
2022/04/28 10:54:01;;;;;;;17.00;10.40;;;18.50;81.00;;;;;;4998853;28;20706;-93
2022/04/28 10:56:41;;;;;;;16.13;10.67;;;18.60;80.40;;;;;;4999080;28;20181;-92
2022/04/28 10:59:34;;;;;;;18.40;10.60;;;18.60;80.40;;;;;;4998259;28;20556;-92
2022/04/28 11:02:13;;;;;;;16.97;9.97;;;18.80;79.40;;;;;;4993304;28;20644;-92
2022/04/28 11:04:41;;;;;;;18.27;10.40;;;18.90;78.80;;;;;;4998384;28;20223;-92
2022/04/28 11:07:15;;;;;;;28.63;11.20;;;19.00;78.20;;;;;;4998193;28;20215;-91
2022/04/28 11:09:50;;;;;;;18.37;10.90;;;19.30;78.30;;;;;;4996842;28;20613;-92
2022/04/28 11:12:18;;;;;;;18.93;10.07;;;19.90;77.30;;;;;;4998278;28;20182;-93
2022/04/28 11:14:44;;;;;;;16.67;10.33;;;20.70;74.70;;;;;;4998336;28;20185;-92
2022/04/28 11:17:15;;;;;;;59.50;12.90;;;21.80;74.10;;;;;;4998219;28;20184;-92
2022/04/28 11:19:41;;;;;;;34.13;11.33;;;22.90;71.00;;;;;;4996384;28;20541;-93
2022/04/28 11:22:07;;;;;;;13.23;9.07;;;24.10;68.80;;;;;;4994841;28;20555;-93
2022/04/28 11:24:33;;;;;;;16.10;10.27;;;25.10;66.10;;;;;;4994788;28;20314;-94
2022/04/28 11:26:59;;;;;;;13.73;9.30;;;26.10;63.80;;;;;;4993963;28;20530;-93
2022/04/28 11:29:28;;;;;;;13.40;9.33;;;26.90;61.60;;;;;;4995018;28;20181;-93
2022/04/28 11:31:54;;;;;;;14.03;10.20;;;27.70;58.70;;;;;;4995098;28;20181;-92
2022/04/28 12:19:19;;;;;;;11.95;9.13;;;33.80;48.00;;;;;;5036356;28;20179;-91
2022/04/28 12:19:20;;;;;;;14.73;9.18;;;34.30;47.50;;;;;;5035512;28;20562;-89
2022/04/28 12:21:46;;;;;;;14.82;8.85;;;34.00;47.30;;;;;;5018985;28;20182;-90
